createdAt,value
2022-08-31T00:00:14.843Z,102386.38
2022-08-31T00:03:05.360Z,102382.16
2022-08-31T00:05:40.406Z,102386.13
2022-08-31T00:08:12.259Z,102388.22
2022-08-31T00:10:46.537Z,102382.09
2022-08-31T00:13:19.271Z,102384.19
2022-08-31T00:15:52.788Z,102385.59
2022-08-31T00:18:24.654Z,102384.94
2022-08-31T00:20:56.712Z,102369.75
2022-08-31T00:23:28.632Z,102374.78
2022-08-31T00:26:00.514Z,102366.31
2022-08-31T00:28:32.391Z,102368.38
2022-08-31T00:31:04.307Z,102370.47
2022-08-31T00:33:37.394Z,102370.84
2022-08-31T00:36:12.054Z,102370.38
2022-08-31T00:38:44.251Z,102369.09
2022-08-31T00:41:18.476Z,102366.53
2022-08-31T00:44:00.884Z,102366.94
2022-08-31T00:46:37.289Z,102369.66
2022-08-31T00:49:12.493Z,102365.41
2022-08-31T00:51:51.207Z,102366.47
2022-08-31T00:54:27.641Z,102361.38
2022-08-31T00:56:59.886Z,102366.19
2022-08-31T00:59:32.018Z,102374.56
2022-08-31T01:02:04.578Z,102373.03
2022-08-31T01:04:37.256Z,102380.41
2022-08-31T01:07:09.851Z,102372.41
2022-08-31T01:09:45.182Z,102372.59
2022-08-31T01:12:28.409Z,102371.94
2022-08-31T01:15:01.790Z,102368.38
2022-08-31T01:17:35.693Z,102376.56
2022-08-31T01:20:35.039Z,102372.97
2022-08-31T01:23:16.240Z,102384.09
2022-08-31T01:25:49.444Z,102376.09
2022-08-31T01:28:21.384Z,102380.91
2022-08-31T01:31:15.845Z,102379.22
2022-08-31T01:33:48.410Z,102377.50
2022-08-31T01:36:22.100Z,102381.28
2022-08-31T01:38:57.130Z,102383.38
2022-08-31T01:41:29.937Z,102388.84
2022-08-31T01:44:02.676Z,102388.84
2022-08-31T01:46:34.672Z,102381.66
2022-08-31T01:49:06.960Z,102379.97
2022-08-31T01:51:39.333Z,102383.53
2022-08-31T01:54:11.624Z,102382.06
2022-08-31T01:56:46.617Z,102395.50
2022-08-31T01:59:23.770Z,102395.72
2022-08-31T02:02:02.289Z,102385.81
2022-08-31T02:04:34.622Z,102407.03
2022-08-31T02:07:06.533Z,102402.59
2022-08-31T02:09:39.448Z,102397.13
2022-08-31T02:12:12.792Z,102399.22
2022-08-31T02:14:44.860Z,102398.53
2022-08-31T02:17:16.930Z,102400.81
2022-08-31T02:19:48.868Z,102400.34
2022-08-31T02:22:20.848Z,102394.38
2022-08-31T02:24:52.833Z,102398.38
2022-08-31T02:27:24.751Z,102398.72
2022-08-31T02:29:57.320Z,102388.84
2022-08-31T02:32:29.753Z,102388.19
2022-08-31T02:35:23.058Z,102392.63
2022-08-31T02:37:55.693Z,102384.41
2022-08-31T02:40:27.857Z,102388.19
2022-08-31T02:43:01.282Z,102389.22
2022-08-31T02:45:34.452Z,102389.22
2022-08-31T02:48:12.708Z,102386.88
2022-08-31T02:50:49.224Z,102387.91
2022-08-31T02:53:23.620Z,102397.50
2022-08-31T02:55:56.353Z,102392.41
2022-08-31T02:58:29.507Z,102382.72
2022-08-31T03:01:01.845Z,102382.25
2022-08-31T03:03:36.762Z,102381.56
2022-08-31T03:06:08.719Z,102380.09
2022-08-31T03:08:42.093Z,102377.53
2022-08-31T03:11:14.815Z,102380.44
2022-08-31T03:13:47.450Z,102380.63
2022-08-31T03:16:20.215Z,102379.13
2022-08-31T03:18:53.872Z,102378.25
2022-08-31T03:21:25.784Z,102372.81
2022-08-31T03:23:57.879Z,102371.94
2022-08-31T03:26:30.088Z,102376.56
2022-08-31T03:29:03.338Z,102376.56
2022-08-31T03:31:56.078Z,102371.94
2022-08-31T03:34:29.684Z,102367.34
2022-08-31T03:37:01.796Z,102372.81
2022-08-31T03:39:33.976Z,102379.78
2022-08-31T03:42:09.230Z,102381.28
2022-08-31T03:44:41.284Z,102382.13
2022-08-31T03:47:19.612Z,102391.84
2022-08-31T03:49:51.790Z,102378.84
2022-08-31T03:52:30.396Z,102387.72
2022-08-31T03:55:09.438Z,102384.97
2022-08-31T03:57:43.442Z,102384.78
2022-08-31T04:00:16.098Z,102383.09
2022-08-31T04:02:53.182Z,102386.47
2022-08-31T04:05:33.525Z,102399.28
2022-08-31T04:08:34.420Z,102392.31
2022-08-31T04:11:44.867Z,102392.69
2022-08-31T04:14:47.011Z,102390.50
2022-08-31T04:17:37.894Z,102392.78
2022-08-31T04:20:34.216Z,102396.06
2022-08-31T04:23:06.545Z,102405.47
2022-08-31T04:25:41.765Z,102398.50
2022-08-31T04:28:17.125Z,102398.88
2022-08-31T04:30:50.242Z,102404.53
2022-08-31T04:33:22.536Z,102402.81
2022-08-31T04:35:54.368Z,102400.25
2022-08-31T04:38:26.389Z,102404.69
2022-08-31T04:40:58.552Z,102412.03
2022-08-31T04:43:30.799Z,102403.16
2022-08-31T04:46:04.451Z,102408.63
2022-08-31T04:48:36.797Z,102411.53
2022-08-31T04:51:12.010Z,102408.97
2022-08-31T04:53:44.441Z,102417.38
2022-08-31T04:56:38.272Z,102411.91
2022-08-31T04:59:13.505Z,102419.44
2022-08-31T05:01:59.591Z,102415.84
2022-08-31T05:04:47.058Z,102413.97
2022-08-31T05:07:20.795Z,102413.97
2022-08-31T05:09:53.499Z,102407.47
2022-08-31T05:12:25.551Z,102409.19
2022-08-31T05:14:57.806Z,102411.72
2022-08-31T05:17:31.276Z,102409.81
2022-08-31T05:20:05.438Z,102411.53
2022-08-31T05:22:37.814Z,102413.22
2022-08-31T05:25:09.773Z,102407.78
2022-08-31T05:27:42.511Z,102415.97
2022-08-31T05:30:14.553Z,102414.97
2022-08-31T05:32:53.505Z,102413.75
2022-08-31T05:35:25.455Z,102418.16
2022-08-31T05:37:57.363Z,102416.28
2022-08-31T05:40:30.091Z,102424.47
2022-08-31T05:43:02.136Z,102423.47
2022-08-31T05:45:34.504Z,102425.13
2022-08-31T05:48:06.584Z,102425.97
2022-08-31T05:50:40.858Z,102424.56
2022-08-31T05:53:12.960Z,102430.53
2022-08-31T05:55:44.892Z,102428.28
2022-08-31T05:58:16.776Z,102436.59
2022-08-31T06:00:49.349Z,102437.91
2022-08-31T06:03:42.344Z,102438.19
2022-08-31T06:06:15.600Z,102439.53
2022-08-31T06:08:47.540Z,102451.41
2022-08-31T06:11:23.838Z,102447.72
2022-08-31T06:14:00.062Z,102444.44
2022-08-31T06:16:33.115Z,102449.16
2022-08-31T06:19:09.635Z,102441.25
2022-08-31T06:21:50.055Z,102432.94
2022-08-31T06:24:26.276Z,102436.81
2022-08-31T06:26:59.576Z,102440.66
2022-08-31T06:29:42.289Z,102439.25
2022-08-31T06:32:15.670Z,102441.63
2022-08-31T06:34:58.933Z,102444.47
2022-08-31T06:38:02.880Z,102449.00
2022-08-31T06:41:00.627Z,102442.09
2022-08-31T06:43:44.410Z,102449.53
2022-08-31T06:46:38.030Z,102444.34
2022-08-31T06:49:23.437Z,102455.16
2022-08-31T06:51:55.457Z,102452.69
2022-08-31T06:54:29.882Z,102448.34
2022-08-31T06:57:21.197Z,102451.16
2022-08-31T07:00:21.972Z,102449.34
2022-08-31T07:03:23.040Z,102445.81
2022-08-31T07:05:56.174Z,102450.13
2022-08-31T07:08:28.285Z,102446.44
2022-08-31T07:11:00.505Z,102440.34
2022-08-31T07:13:32.575Z,102442.59
2022-08-31T07:16:07.688Z,102440.16
2022-08-31T07:18:40.931Z,102432.16
2022-08-31T07:21:15.441Z,102435.56
2022-08-31T07:23:49.040Z,102447.38
2022-08-31T07:26:37.184Z,102441.69
2022-08-31T07:29:11.979Z,102445.91
2022-08-31T07:31:46.562Z,102452.25
2022-08-31T07:34:25.986Z,102451.22
2022-08-31T07:37:29.132Z,102447.00
2022-08-31T07:40:20.304Z,102441.53
2022-08-31T07:42:52.523Z,102451.69
2022-08-31T07:45:27.377Z,102445.78
2022-08-31T07:48:03.087Z,102440.28
2022-08-31T07:50:47.010Z,102452.53
2022-08-31T07:53:48.249Z,102447.50
2022-08-31T07:56:35.100Z,102453.44
2022-08-31T07:59:15.925Z,102447.75
2022-08-31T08:01:50.358Z,102455.41
2022-08-31T08:04:27.455Z,102460.41
2022-08-31T08:07:33.769Z,102451.53
2022-08-31T08:10:24.260Z,102450.91
2022-08-31T08:13:19.117Z,102459.56
2022-08-31T08:15:58.750Z,102468.66
2022-08-31T08:18:39.722Z,102469.50
2022-08-31T08:21:13.701Z,102467.81
2022-08-31T08:23:45.708Z,102471.19
2022-08-31T08:26:33.001Z,102472.91
2022-08-31T08:29:24.208Z,102465.50
2022-08-31T08:31:56.634Z,102460.59
2022-08-31T08:34:32.938Z,102465.06
2022-08-31T08:37:10.374Z,102465.91
2022-08-31T08:39:43.163Z,102462.31
2022-08-31T08:42:23.668Z,102466.09
2022-08-31T08:44:56.777Z,102467.81
2022-08-31T08:47:37.704Z,102471.19
2022-08-31T08:50:11.922Z,102467.81
2022-08-31T08:52:46.975Z,102462.09
2022-08-31T08:55:22.179Z,102457.84
2022-08-31T08:57:56.031Z,102466.31
2022-08-31T09:00:28.618Z,102455.31
2022-08-31T09:03:10.230Z,102464.19
2022-08-31T09:06:18.382Z,102462.47
2022-08-31T09:09:18.302Z,102460.72
2022-08-31T09:12:23.148Z,102461.13
2022-08-31T09:15:36.569Z,102457.50
2022-08-31T09:18:26.504Z,102464.06
2022-08-31T09:21:23.530Z,102459.38
2022-08-31T09:24:10.759Z,102461.50
2022-08-31T09:27:38.912Z,102458.34
2022-08-31T09:30:11.352Z,102458.16
2022-08-31T09:32:55.862Z,102458.38
2022-08-31T09:35:30.615Z,102454.56
2022-08-31T09:38:09.963Z,102457.28
2022-08-31T09:40:49.807Z,102453.44
2022-08-31T09:43:25.248Z,102452.97
2022-08-31T09:46:07.359Z,102455.53
2022-08-31T09:48:56.042Z,102455.91
2022-08-31T09:51:33.857Z,102437.69
2022-08-31T09:54:47.267Z,102450.84
2022-08-31T09:57:19.493Z,102447.47
2022-08-31T09:59:51.625Z,102453.63
2022-08-31T10:02:26.907Z,102443.66
2022-08-31T10:05:03.664Z,102436.84
2022-08-31T10:08:07.230Z,102438.94
2022-08-31T10:10:39.791Z,102432.63
2022-08-31T10:13:37.641Z,102437.09
2022-08-31T10:16:36.570Z,102435.25
2022-08-31T10:19:11.847Z,102444.59
2022-08-31T10:22:06.989Z,102448.44
2022-08-31T10:24:48.291Z,102442.47
2022-08-31T10:27:32.908Z,102437.16
2022-08-31T10:30:17.861Z,102436.91
2022-08-31T10:33:09.012Z,102434.34
2022-08-31T10:36:01.954Z,102437.97
2022-08-31T10:38:43.169Z,102432.84
2022-08-31T10:41:22.625Z,102429.25
2022-08-31T10:44:23.964Z,102427.34
2022-08-31T10:46:59.189Z,102436.88
2022-08-31T10:49:35.531Z,102431.59
2022-08-31T10:52:29.342Z,102434.34
2022-08-31T10:55:29.257Z,102431.78
2022-08-31T10:58:13.473Z,102428.81
2022-08-31T11:00:51.125Z,102433.00
2022-08-31T11:03:38.107Z,102429.94
2022-08-31T11:06:18.867Z,102423.66
2022-08-31T11:08:57.538Z,102419.13
2022-08-31T11:11:43.829Z,102406.72
2022-08-31T11:14:27.036Z,102413.94
2022-08-31T11:17:23.878Z,102422.75
2022-08-31T11:20:19.815Z,102410.34
2022-08-31T11:23:28.791Z,102412.97
2022-08-31T11:26:39.195Z,102413.03
2022-08-31T11:29:32.492Z,102407.66
2022-08-31T11:32:12.210Z,102409.72
2022-08-31T11:34:51.496Z,102407.19
2022-08-31T11:37:46.833Z,102401.06
2022-08-31T11:40:41.914Z,102390.03
2022-08-31T11:43:17.002Z,102388.78
2022-08-31T11:45:50.366Z,102386.94
2022-08-31T11:48:51.431Z,102386.84
2022-08-31T11:51:36.044Z,102385.84
2022-08-31T11:54:10.867Z,102374.41
2022-08-31T11:56:45.282Z,102372.53
2022-08-31T11:59:34.291Z,102374.81
2022-08-31T12:02:22.920Z,102364.91
2022-08-31T12:05:03.083Z,102365.69
2022-08-31T12:07:36.031Z,102358.66
2022-08-31T12:10:36.082Z,102360.84
2022-08-31T12:13:19.611Z,102358.56
2022-08-31T12:16:01.490Z,102366.16
2022-08-31T12:18:59.056Z,102349.63
2022-08-31T12:22:11.197Z,102360.66
2022-08-31T12:24:54.900Z,102357.41
2022-08-31T12:27:35.807Z,102358.59
2022-08-31T12:30:37.025Z,102346.31
2022-08-31T12:33:12.707Z,102345.16
2022-08-31T12:35:50.467Z,102345.84
2022-08-31T12:38:24.093Z,102336.66
2022-08-31T12:40:57.372Z,102332.38
2022-08-31T12:43:38.342Z,102328.13
2022-08-31T12:46:22.382Z,102320.00
2022-08-31T12:48:54.337Z,102321.03
2022-08-31T12:51:43.102Z,102314.66
2022-08-31T12:54:30.354Z,102318.50
2022-08-31T12:57:18.793Z,102314.34
2022-08-31T13:00:21.757Z,102316.72
2022-08-31T13:03:18.565Z,102309.63
2022-08-31T13:06:05.890Z,102303.06
2022-08-31T13:08:45.884Z,102303.72
2022-08-31T13:11:40.754Z,102307.31
2022-08-31T13:14:24.443Z,102303.56
2022-08-31T13:17:11.302Z,102298.69
2022-08-31T13:19:48.258Z,102293.91
2022-08-31T13:22:41.693Z,102301.19
2022-08-31T13:25:37.113Z,102295.31
2022-08-31T13:28:12.475Z,102286.88
2022-08-31T13:30:57.418Z,102280.16
2022-08-31T13:33:34.907Z,102279.03
2022-08-31T13:36:10.608Z,102277.88
2022-08-31T13:38:53.226Z,102280.44
2022-08-31T13:41:34.531Z,102272.94
2022-08-31T13:44:10.060Z,102274.06
2022-08-31T13:47:12.069Z,102269.78
2022-08-31T13:49:44.321Z,102272.22
2022-08-31T13:52:28.573Z,102271.56
2022-08-31T13:55:04.142Z,102273.50
2022-08-31T13:57:38.256Z,102277.19
2022-08-31T14:00:31.816Z,102280.53
2022-08-31T14:03:45.017Z,102277.91
2022-08-31T14:06:24.167Z,102280.66
2022-08-31T14:09:16.035Z,102273.56
2022-08-31T14:11:55.596Z,102275.41
2022-08-31T14:14:39.772Z,102280.69
2022-08-31T14:17:15.534Z,102282.72
2022-08-31T14:19:47.576Z,102280.53
2022-08-31T14:22:31.617Z,102272.47
2022-08-31T14:25:03.622Z,102276.38
2022-08-31T14:27:36.615Z,102267.91
2022-08-31T14:30:09.385Z,102264.66
2022-08-31T14:32:45.693Z,102264.66
2022-08-31T14:35:17.640Z,102264.97
2022-08-31T14:37:49.512Z,102265.47
2022-08-31T14:40:21.434Z,102263.28
2022-08-31T14:42:53.363Z,102257.16
2022-08-31T14:45:25.332Z,102257.75
2022-08-31T14:47:59.746Z,102253.97
2022-08-31T14:50:31.608Z,102256.25
2022-08-31T14:53:03.467Z,102252.56
2022-08-31T14:55:37.963Z,102255.03
2022-08-31T14:58:12.902Z,102256.22
2022-08-31T15:00:53.505Z,102254.59
2022-08-31T15:03:26.668Z,102255.97
2022-08-31T15:06:00.167Z,102249.94
2022-08-31T15:08:38.800Z,102247.94
2022-08-31T15:11:11.382Z,102257.19
2022-08-31T15:13:43.523Z,102253.56
2022-08-31T15:16:15.573Z,102244.75
2022-08-31T15:18:47.913Z,102251.84
2022-08-31T15:21:20.128Z,102245.50
2022-08-31T15:23:52.245Z,102248.84
2022-08-31T15:26:24.872Z,102242.31
2022-08-31T15:29:00.117Z,102244.00
2022-08-31T15:31:32.709Z,102245.16
2022-08-31T15:34:09.549Z,102249.13
2022-08-31T15:36:41.965Z,102250.19
2022-08-31T15:39:14.674Z,102241.22
2022-08-31T15:41:47.187Z,102243.63
2022-08-31T15:44:20.502Z,102249.78
2022-08-31T15:47:11.012Z,102244.47
2022-08-31T15:49:43.931Z,102246.69
2022-08-31T15:52:15.887Z,102248.28
2022-08-31T15:54:48.528Z,102239.03
2022-08-31T15:57:23.796Z,102243.59
2022-08-31T15:59:56.256Z,102237.03
2022-08-31T16:02:31.650Z,102242.69
2022-08-31T16:05:04.453Z,102231.44
2022-08-31T16:07:37.195Z,102238.13
2022-08-31T16:10:16.737Z,102228.75
2022-08-31T16:12:51.949Z,102226.97
2022-08-31T16:15:25.010Z,102224.69
2022-08-31T16:17:57.475Z,102225.19
2022-08-31T16:20:29.628Z,102221.59
2022-08-31T16:23:03.084Z,102221.22
2022-08-31T16:25:47.797Z,102218.69
2022-08-31T16:28:21.767Z,102218.31
2022-08-31T16:30:53.945Z,102217.38
2022-08-31T16:33:25.963Z,102212.56
2022-08-31T16:35:57.886Z,102212.72
2022-08-31T16:38:30.899Z,102209.84
2022-08-31T16:41:04.874Z,102210.69
2022-08-31T16:43:38.919Z,102213.44
2022-08-31T16:46:37.293Z,102213.81
2022-08-31T16:49:22.960Z,102206.00
2022-08-31T16:51:55.544Z,102213.59
2022-08-31T16:54:28.595Z,102212.03
2022-08-31T16:57:00.930Z,102214.69
2022-08-31T16:59:33.046Z,102219.03
2022-08-31T17:02:05.174Z,102219.47
2022-08-31T17:04:52.154Z,102225.50
2022-08-31T17:07:24.996Z,102221.06
2022-08-31T17:09:57.898Z,102228.50
2022-08-31T17:12:31.921Z,102221.75
2022-08-31T17:15:04.381Z,102222.47
2022-08-31T17:17:36.482Z,102228.44
2022-08-31T17:20:09.303Z,102226.66
2022-08-31T17:22:41.349Z,102230.16
2022-08-31T17:25:13.265Z,102225.31
2022-08-31T17:27:45.604Z,102233.72
2022-08-31T17:30:23.289Z,102228.66
2022-08-31T17:32:55.247Z,102239.59
2022-08-31T17:35:27.897Z,102233.94
2022-08-31T17:37:59.918Z,102232.72
2022-08-31T17:40:31.834Z,102235.13
2022-08-31T17:43:03.979Z,102237.13
2022-08-31T17:45:36.857Z,102238.47
2022-08-31T17:48:08.923Z,102241.09
2022-08-31T17:50:43.062Z,102238.16
2022-08-31T17:53:14.938Z,102241.63
2022-08-31T17:55:56.976Z,102237.88
2022-08-31T17:58:29.243Z,102238.34
2022-08-31T18:01:01.336Z,102250.31
2022-08-31T18:03:33.364Z,102250.78
2022-08-31T18:06:05.341Z,102255.06
2022-08-31T18:08:37.961Z,102251.09
2022-08-31T18:11:10.802Z,102247.56
2022-08-31T18:13:43.931Z,102253.56
2022-08-31T18:16:17.748Z,102259.63
2022-08-31T18:18:50.689Z,102265.69
2022-08-31T18:21:23.661Z,102269.59
2022-08-31T18:23:55.611Z,102268.66
2022-08-31T18:26:33.603Z,102275.75
2022-08-31T18:29:08.563Z,102276.28
2022-08-31T18:31:43.195Z,102286.75
2022-08-31T18:34:19.043Z,102283.22
2022-08-31T18:36:53.235Z,102287.91
2022-08-31T18:39:50.063Z,102290.28
2022-08-31T18:42:37.494Z,102298.59
2022-08-31T18:45:15.512Z,102300.59
2022-08-31T18:50:48.364Z,102308.69
2022-08-31T18:53:28.837Z,102309.34
2022-08-31T18:56:07.775Z,102310.69
2022-08-31T18:58:40.127Z,102304.38
2022-08-31T19:01:15.503Z,102308.63
2022-08-31T19:03:47.908Z,102308.25
2022-08-31T19:06:22.227Z,102307.84
2022-08-31T19:08:54.170Z,102318.44
2022-08-31T19:11:26.253Z,102307.66
2022-08-31T19:13:59.170Z,102316.13
2022-08-31T19:16:31.290Z,102311.69
2022-08-31T19:19:03.222Z,102313.00
2022-08-31T19:21:37.706Z,102315.09
2022-08-31T19:24:12.673Z,102316.41
2022-08-31T19:26:50.855Z,102326.97
2022-08-31T19:29:26.572Z,102326.38
2022-08-31T19:32:00.072Z,102317.94
2022-08-31T19:34:35.389Z,102325.53
2022-08-31T19:37:07.911Z,102324.94
2022-08-31T19:39:43.074Z,102322.00
2022-08-31T19:42:16.465Z,102330.88
2022-08-31T19:45:22.823Z,102327.13
2022-08-31T19:47:40.768Z,102330.06
2022-08-31T19:50:14.132Z,102333.44
2022-08-31T19:52:46.996Z,102329.44
2022-08-31T19:55:18.994Z,102332.59
2022-08-31T19:57:50.936Z,102324.81
2022-08-31T20:00:22.990Z,102326.31
2022-08-31T20:02:55.329Z,102332.00
2022-08-31T20:05:27.219Z,102322.06
2022-08-31T20:07:59.174Z,102324.59
2022-08-31T20:10:31.100Z,102325.22
2022-08-31T20:13:03.098Z,102330.50
2022-08-31T20:15:40.888Z,102320.16
2022-08-31T20:18:13.072Z,102330.91
2022-08-31T20:20:48.202Z,102333.66
2022-08-31T20:23:21.272Z,102330.09
2022-08-31T20:25:53.484Z,102321.84
2022-08-31T20:28:26.844Z,102330.53
2022-08-31T20:31:06.235Z,102328.22
2022-08-31T20:33:39.100Z,102330.56
2022-08-31T20:36:26.451Z,102327.59
2022-08-31T20:39:08.284Z,102328.47
2022-08-31T20:41:45.743Z,102340.09
2022-08-31T20:44:23.472Z,102339.03
2022-08-31T20:47:17.377Z,102333.97
2022-08-31T20:49:57.668Z,102336.09
2022-08-31T20:52:35.131Z,102333.53
2022-08-31T20:55:07.861Z,102328.91
2022-08-31T20:57:40.892Z,102335.03
2022-08-31T21:00:14.718Z,102336.09
2022-08-31T21:02:47.080Z,102341.81
2022-08-31T21:05:38.463Z,102334.81
2022-08-31T21:08:11.586Z,102340.75
2022-08-31T21:10:44.065Z,102343.91
2022-08-31T21:13:16.910Z,102337.16
2022-08-31T21:15:48.888Z,102338.44
2022-08-31T21:18:20.925Z,102335.66
2022-08-31T21:20:52.866Z,102338.84
2022-08-31T21:23:24.829Z,102343.69
2022-08-31T21:25:57.395Z,102333.53
2022-08-31T21:28:29.739Z,102342.19
2022-08-31T21:31:15.819Z,102340.28
2022-08-31T21:34:01.451Z,102343.47
2022-08-31T21:36:33.743Z,102336.28
2022-08-31T21:39:08.272Z,102343.47
2022-08-31T21:41:41.208Z,102340.28
2022-08-31T21:44:17.014Z,102344.09
2022-08-31T21:46:50.861Z,102349.16
2022-08-31T21:49:22.921Z,102351.91
2022-08-31T21:51:56.479Z,102349.78
2022-08-31T21:54:28.826Z,102359.72
2022-08-31T21:57:02.256Z,102358.69
2022-08-31T21:59:35.982Z,102361.41
2022-08-31T22:02:11.203Z,102363.13
2022-08-31T22:04:43.988Z,102366.91
2022-08-31T22:07:16.316Z,102359.91
2022-08-31T22:09:48.729Z,102368.41
2022-08-31T22:12:20.763Z,102367.75
2022-08-31T22:14:53.475Z,102362.69
2022-08-31T22:17:42.281Z,102366.47
2022-08-31T22:20:19.899Z,102368.56
2022-08-31T22:22:52.026Z,102358.03
2022-08-31T22:25:24.902Z,102362.84
2022-08-31T22:27:57.007Z,102363.09
2022-08-31T22:30:29.088Z,102366.88
2022-08-31T22:33:01.001Z,102371.53
2022-08-31T22:35:38.018Z,102367.09
2022-08-31T22:38:14.683Z,102379.09
2022-08-31T22:40:50.110Z,102376.59
2022-08-31T22:43:22.378Z,102370.22
2022-08-31T22:45:54.519Z,102376.53
2022-08-31T22:48:26.534Z,102384.78
2022-08-31T22:51:03.855Z,102385.56
2022-08-31T22:53:37.726Z,102377.72
2022-08-31T22:56:21.923Z,102378.06
2022-08-31T22:58:57.987Z,102383.72
2022-08-31T23:01:36.814Z,102379.06
2022-08-31T23:04:11.983Z,102383.44
2022-08-31T23:06:43.927Z,102381.13
2022-08-31T23:09:20.872Z,102376.22
2022-08-31T23:11:53.243Z,102377.47
2022-08-31T23:14:25.459Z,102385.06
2022-08-31T23:16:59.877Z,102382.53
2022-08-31T23:19:36.817Z,102382.72
2022-08-31T23:22:11.577Z,102374.06
2022-08-31T23:24:47.151Z,102379.09
2022-08-31T23:27:21.547Z,102375.72
2022-08-31T23:29:58.786Z,102374.63
2022-08-31T23:32:33.621Z,102377.78
2022-08-31T23:35:07.169Z,102377.97
2022-08-31T23:37:40.280Z,102375.59
2022-08-31T23:40:15.483Z,102378.75
2022-08-31T23:42:47.492Z,102372.66
2022-08-31T23:45:19.456Z,102370.28
2022-08-31T23:47:53.933Z,102378.50
2022-08-31T23:50:25.797Z,102378.91
2022-08-31T23:52:57.883Z,102376.19
2022-08-31T23:55:31.261Z,102373.03
2022-08-31T23:58:04.190Z,102370.94
